sensor_id;sensor_type;location;lat;lon;timestamp;temperature;humidity
70271;SHT31;57680;54.292;18.598;2024-03-06T00:02:25;4.45;99.99
70271;SHT31;57680;54.292;18.598;2024-03-06T00:04:50;4.42;99.90
70271;SHT31;57680;54.292;18.598;2024-03-06T00:07:15;4.43;99.85
70271;SHT31;57680;54.292;18.598;2024-03-06T00:09:41;4.43;99.78
70271;SHT31;57680;54.292;18.598;2024-03-06T00:12:06;4.45;99.69
70271;SHT31;57680;54.292;18.598;2024-03-06T00:14:31;4.43;99.69
70271;SHT31;57680;54.292;18.598;2024-03-06T00:16:57;4.45;99.51
70271;SHT31;57680;54.292;18.598;2024-03-06T00:19:22;4.43;99.43
70271;SHT31;57680;54.292;18.598;2024-03-06T00:21:47;4.42;99.43
70271;SHT31;57680;54.292;18.598;2024-03-06T00:24:13;4.45;99.36
70271;SHT31;57680;54.292;18.598;2024-03-06T00:26:43;4.46;99.31
70271;SHT31;57680;54.292;18.598;2024-03-06T00:29:09;4.46;99.16
70271;SHT31;57680;54.292;18.598;2024-03-06T00:31:34;4.45;99.11
70271;SHT31;57680;54.292;18.598;2024-03-06T00:33:59;4.45;99.11
70271;SHT31;57680;54.292;18.598;2024-03-06T00:36:25;4.43;98.95
70271;SHT31;57680;54.292;18.598;2024-03-06T00:38:50;4.46;98.83
70271;SHT31;57680;54.292;18.598;2024-03-06T00:41:15;4.49;98.86
70271;SHT31;57680;54.292;18.598;2024-03-06T00:43:41;4.48;98.65
70271;SHT31;57680;54.292;18.598;2024-03-06T00:46:06;4.49;98.60
70271;SHT31;57680;54.292;18.598;2024-03-06T00:48:31;4.48;98.24
70271;SHT31;57680;54.292;18.598;2024-03-06T00:50:56;4.53;98.01
70271;SHT31;57680;54.292;18.598;2024-03-06T00:53:22;4.57;97.90
70271;SHT31;57680;54.292;18.598;2024-03-06T00:55:47;4.59;97.68
70271;SHT31;57680;54.292;18.598;2024-03-06T00:58:12;4.60;97.51
70271;SHT31;57680;54.292;18.598;2024-03-06T01:00:38;4.57;97.54
70271;SHT31;57680;54.292;18.598;2024-03-06T01:03:03;4.54;97.35
70271;SHT31;57680;54.292;18.598;2024-03-06T01:05:29;4.54;97.55
70271;SHT31;57680;54.292;18.598;2024-03-06T01:07:54;4.59;97.50
70271;SHT31;57680;54.292;18.598;2024-03-06T01:10:19;4.59;97.33
70271;SHT31;57680;54.292;18.598;2024-03-06T01:12:45;4.62;96.97
70271;SHT31;57680;54.292;18.598;2024-03-06T01:15:10;4.63;96.75
70271;SHT31;57680;54.292;18.598;2024-03-06T01:17:35;4.62;96.78
70271;SHT31;57680;54.292;18.598;2024-03-06T01:20:01;4.62;96.75
70271;SHT31;57680;54.292;18.598;2024-03-06T01:22:26;4.63;96.71
70271;SHT31;57680;54.292;18.598;2024-03-06T01:24:51;4.66;96.72
70271;SHT31;57680;54.292;18.598;2024-03-06T01:27:16;4.64;96.69
70271;SHT31;57680;54.292;18.598;2024-03-06T01:29:42;4.66;96.71
70271;SHT31;57680;54.292;18.598;2024-03-06T01:32:07;4.67;96.62
70271;SHT31;57680;54.292;18.598;2024-03-06T01:34:32;4.67;96.58
70271;SHT31;57680;54.292;18.598;2024-03-06T01:36:58;4.67;96.49
70271;SHT31;57680;54.292;18.598;2024-03-06T01:39:23;4.67;96.34
70271;SHT31;57680;54.292;18.598;2024-03-06T01:41:50;4.74;96.29
70271;SHT31;57680;54.292;18.598;2024-03-06T01:44:16;4.74;96.24
70271;SHT31;57680;54.292;18.598;2024-03-06T01:46:45;4.79;96.00
70271;SHT31;57680;54.292;18.598;2024-03-06T01:49:15;4.77;96.00
70271;SHT31;57680;54.292;18.598;2024-03-06T01:51:43;4.77;95.96
70271;SHT31;57680;54.292;18.598;2024-03-06T01:54:10;4.81;95.76
70271;SHT31;57680;54.292;18.598;2024-03-06T01:56:38;4.83;95.63
70271;SHT31;57680;54.292;18.598;2024-03-06T01:59:04;4.83;95.54
70271;SHT31;57680;54.292;18.598;2024-03-06T02:01:31;4.84;95.60
70271;SHT31;57680;54.292;18.598;2024-03-06T02:03:57;4.85;95.64
70271;SHT31;57680;54.292;18.598;2024-03-06T02:06:23;4.84;95.57
70271;SHT31;57680;54.292;18.598;2024-03-06T02:08:48;4.83;95.60
70271;SHT31;57680;54.292;18.598;2024-03-06T02:11:14;4.84;95.67
70271;SHT31;57680;54.292;18.598;2024-03-06T02:13:39;4.85;95.58
70271;SHT31;57680;54.292;18.598;2024-03-06T02:16:05;4.83;95.63
70271;SHT31;57680;54.292;18.598;2024-03-06T02:18:30;4.83;95.75
70271;SHT31;57680;54.292;18.598;2024-03-06T02:20:55;4.80;95.85
70271;SHT31;57680;54.292;18.598;2024-03-06T02:23:21;4.77;95.92
70271;SHT31;57680;54.292;18.598;2024-03-06T02:25:46;4.77;96.09
70271;SHT31;57680;54.292;18.598;2024-03-06T02:28:11;4.77;95.96
70271;SHT31;57680;54.292;18.598;2024-03-06T02:30:37;4.74;95.92
70271;SHT31;57680;54.292;18.598;2024-03-06T02:33:02;4.69;96.17
70271;SHT31;57680;54.292;18.598;2024-03-06T02:35:28;4.70;95.95
70271;SHT31;57680;54.292;18.598;2024-03-06T02:37:53;4.67;96.16
70271;SHT31;57680;54.292;18.598;2024-03-06T02:40:18;4.63;96.20
70271;SHT31;57680;54.292;18.598;2024-03-06T02:42:44;4.60;96.01
70271;SHT31;57680;54.292;18.598;2024-03-06T02:45:09;4.62;96.03
70271;SHT31;57680;54.292;18.598;2024-03-06T02:47:34;4.59;95.89
70271;SHT31;57680;54.292;18.598;2024-03-06T02:50:00;4.56;95.94
70271;SHT31;57680;54.292;18.598;2024-03-06T02:52:25;4.57;95.93
70271;SHT31;57680;54.292;18.598;2024-03-06T02:54:50;4.54;95.77
70271;SHT31;57680;54.292;18.598;2024-03-06T02:57:15;4.56;95.77
70271;SHT31;57680;54.292;18.598;2024-03-06T02:59:41;4.54;95.63
70271;SHT31;57680;54.292;18.598;2024-03-06T03:02:06;4.56;95.54
70271;SHT31;57680;54.292;18.598;2024-03-06T03:04:31;4.54;95.49
70271;SHT31;57680;54.292;18.598;2024-03-06T03:06:57;4.52;95.50
70271;SHT31;57680;54.292;18.598;2024-03-06T03:09:22;4.53;95.44
70271;SHT31;57680;54.292;18.598;2024-03-06T03:11:47;4.54;95.46
70271;SHT31;57680;54.292;18.598;2024-03-06T03:14:12;4.53;95.38
70271;SHT31;57680;54.292;18.598;2024-03-06T03:16:38;4.53;95.23
70271;SHT31;57680;54.292;18.598;2024-03-06T03:19:03;4.53;95.12
70271;SHT31;57680;54.292;18.598;2024-03-06T03:21:28;4.56;95.03
70271;SHT31;57680;54.292;18.598;2024-03-06T03:23:54;4.53;94.94
70271;SHT31;57680;54.292;18.598;2024-03-06T03:26:19;4.57;94.94
70271;SHT31;57680;54.292;18.598;2024-03-06T03:28:44;4.56;94.72
70271;SHT31;57680;54.292;18.598;2024-03-06T03:31:10;4.56;94.59
70271;SHT31;57680;54.292;18.598;2024-03-06T03:33:35;4.59;94.53
70271;SHT31;57680;54.292;18.598;2024-03-06T03:36:01;4.56;94.42
70271;SHT31;57680;54.292;18.598;2024-03-06T03:38:26;4.57;94.25
70271;SHT31;57680;54.292;18.598;2024-03-06T03:40:52;4.60;94.11
70271;SHT31;57680;54.292;18.598;2024-03-06T03:43:17;4.59;94.02
70271;SHT31;57680;54.292;18.598;2024-03-06T03:45:42;4.56;93.95
70271;SHT31;57680;54.292;18.598;2024-03-06T03:48:08;4.54;93.90
70271;SHT31;57680;54.292;18.598;2024-03-06T03:50:33;4.53;93.69
70271;SHT31;57680;54.292;18.598;2024-03-06T03:52:58;4.52;93.84
70271;SHT31;57680;54.292;18.598;2024-03-06T03:55:24;4.53;93.92
70271;SHT31;57680;54.292;18.598;2024-03-06T03:57:49;4.52;93.85
70271;SHT31;57680;54.292;18.598;2024-03-06T04:00:15;4.50;93.92
70271;SHT31;57680;54.292;18.598;2024-03-06T04:02:40;4.48;94.06
70271;SHT31;57680;54.292;18.598;2024-03-06T04:05:06;4.46;94.16
70271;SHT31;57680;54.292;18.598;2024-03-06T04:07:31;4.43;94.16
70271;SHT31;57680;54.292;18.598;2024-03-06T04:09:56;4.39;94.19
70271;SHT31;57680;54.292;18.598;2024-03-06T04:12:22;4.35;94.19
70271;SHT31;57680;54.292;18.598;2024-03-06T04:14:47;4.39;93.84
70271;SHT31;57680;54.292;18.598;2024-03-06T04:17:12;4.31;93.82
70271;SHT31;57680;54.292;18.598;2024-03-06T04:19:37;4.28;93.65
70271;SHT31;57680;54.292;18.598;2024-03-06T05:56:31;3.85;91.25
70271;SHT31;57680;54.292;18.598;2024-03-06T06:01:32;3.80;91.26
70271;SHT31;57680;54.292;18.598;2024-03-06T06:03:57;3.73;91.07
70271;SHT31;57680;54.292;18.598;2024-03-06T06:06:22;3.73;91.33
70271;SHT31;57680;54.292;18.598;2024-03-06T06:08:48;3.70;90.98
70271;SHT31;57680;54.292;18.598;2024-03-06T06:11:13;3.63;90.77
70271;SHT31;57680;54.292;18.598;2024-03-06T06:13:39;3.59;90.95
70271;SHT31;57680;54.292;18.598;2024-03-06T06:16:04;3.59;90.92
70271;SHT31;57680;54.292;18.598;2024-03-06T06:18:30;3.57;90.88
70271;SHT31;57680;54.292;18.598;2024-03-06T06:20:55;3.57;91.04
70271;SHT31;57680;54.292;18.598;2024-03-06T06:23:20;3.56;91.05
70271;SHT31;57680;54.292;18.598;2024-03-06T06:25:46;3.57;90.91
70271;SHT31;57680;54.292;18.598;2024-03-06T06:28:11;3.59;90.91
70271;SHT31;57680;54.292;18.598;2024-03-06T06:30:37;3.63;90.94
70271;SHT31;57680;54.292;18.598;2024-03-06T06:33:02;3.63;90.52
70271;SHT31;57680;54.292;18.598;2024-03-06T06:35:27;3.67;90.68
70271;SHT31;57680;54.292;18.598;2024-03-06T06:37:53;3.74;90.63
70271;SHT31;57680;54.292;18.598;2024-03-06T06:40:18;3.87;90.02
70271;SHT31;57680;54.292;18.598;2024-03-06T06:42:45;4.05;89.56
70271;SHT31;57680;54.292;18.598;2024-03-06T06:45:10;4.22;89.04
70271;SHT31;57680;54.292;18.598;2024-03-06T06:47:36;4.31;88.18
70271;SHT31;57680;54.292;18.598;2024-03-06T06:50:01;4.38;87.39
70271;SHT31;57680;54.292;18.598;2024-03-06T06:52:27;4.45;87.45
70271;SHT31;57680;54.292;18.598;2024-03-06T06:54:52;4.54;87.30
70271;SHT31;57680;54.292;18.598;2024-03-06T06:57:18;4.67;86.92
70271;SHT31;57680;54.292;18.598;2024-03-06T06:59:43;4.79;86.78
70271;SHT31;57680;54.292;18.598;2024-03-06T07:02:08;4.81;85.88
70271;SHT31;57680;54.292;18.598;2024-03-06T07:04:34;4.79;85.64
70271;SHT31;57680;54.292;18.598;2024-03-06T07:06:59;4.74;85.77
70271;SHT31;57680;54.292;18.598;2024-03-06T07:09:24;4.77;85.78
70271;SHT31;57680;54.292;18.598;2024-03-06T07:11:49;4.81;85.30
70271;SHT31;57680;54.292;18.598;2024-03-06T07:14:15;4.87;85.77
70271;SHT31;57680;54.292;18.598;2024-03-06T07:16:44;4.93;85.35
70271;SHT31;57680;54.292;18.598;2024-03-06T07:19:10;4.97;85.31
70271;SHT31;57680;54.292;18.598;2024-03-06T07:21:36;5.00;85.40
70271;SHT31;57680;54.292;18.598;2024-03-06T07:24:01;5.03;85.20
70271;SHT31;57680;54.292;18.598;2024-03-06T07:26:27;5.01;84.29
70271;SHT31;57680;54.292;18.598;2024-03-06T07:28:52;4.95;84.75
70271;SHT31;57680;54.292;18.598;2024-03-06T07:31:18;4.93;85.03
70271;SHT31;57680;54.292;18.598;2024-03-06T07:33:43;4.93;84.32
70271;SHT31;57680;54.292;18.598;2024-03-06T07:36:09;4.90;84.16
70271;SHT31;57680;54.292;18.598;2024-03-06T07:38:34;4.93;84.47
70271;SHT31;57680;54.292;18.598;2024-03-06T07:40:59;5.03;84.74
70271;SHT31;57680;54.292;18.598;2024-03-06T07:46:00;5.03;82.96
70271;SHT31;57680;54.292;18.598;2024-03-06T07:48:25;5.05;83.31
70271;SHT31;57680;54.292;18.598;2024-03-06T07:50:50;5.17;83.30
70271;SHT31;57680;54.292;18.598;2024-03-06T07:53:16;5.17;82.32
70271;SHT31;57680;54.292;18.598;2024-03-06T07:55:41;5.17;81.63
70271;SHT31;57680;54.292;18.598;2024-03-06T07:58:07;5.25;82.09
70271;SHT31;57680;54.292;18.598;2024-03-06T08:00:32;5.36;81.16
70271;SHT31;57680;54.292;18.598;2024-03-06T08:02:58;5.46;80.98
70271;SHT31;57680;54.292;18.598;2024-03-06T08:05:23;5.49;80.65
70271;SHT31;57680;54.292;18.598;2024-03-06T08:07:48;5.52;80.10
70271;SHT31;57680;54.292;18.598;2024-03-06T08:10:14;5.58;79.96
70271;SHT31;57680;54.292;18.598;2024-03-06T08:12:40;5.70;80.20
70271;SHT31;57680;54.292;18.598;2024-03-06T08:15:10;5.77;80.56
70271;SHT31;57680;54.292;18.598;2024-03-06T08:17:35;5.92;80.95
70271;SHT31;57680;54.292;18.598;2024-03-06T08:20:04;6.00;80.80
70271;SHT31;57680;54.292;18.598;2024-03-06T08:22:29;5.87;79.80
70271;SHT31;57680;54.292;18.598;2024-03-06T08:24:54;5.83;79.93
70271;SHT31;57680;54.292;18.598;2024-03-06T08:27:20;5.83;79.60
70271;SHT31;57680;54.292;18.598;2024-03-06T08:29:45;5.99;80.04
70271;SHT31;57680;54.292;18.598;2024-03-06T08:32:10;5.97;79.43
70271;SHT31;57680;54.292;18.598;2024-03-06T08:34:36;6.00;78.97
70271;SHT31;57680;54.292;18.598;2024-03-06T08:37:01;5.96;78.43
70271;SHT31;57680;54.292;18.598;2024-03-06T08:39:26;5.97;79.02
70271;SHT31;57680;54.292;18.598;2024-03-06T08:41:51;5.94;78.43
70271;SHT31;57680;54.292;18.598;2024-03-06T08:44:17;6.03;78.90
70271;SHT31;57680;54.292;18.598;2024-03-06T08:46:42;6.04;78.48
70271;SHT31;57680;54.292;18.598;2024-03-06T08:49:07;6.16;78.31
70271;SHT31;57680;54.292;18.598;2024-03-06T08:51:33;6.34;78.27
70271;SHT31;57680;54.292;18.598;2024-03-06T08:53:58;6.25;77.16
70271;SHT31;57680;54.292;18.598;2024-03-06T08:56:23;6.13;77.19
70271;SHT31;57680;54.292;18.598;2024-03-06T08:58:49;6.10;78.10
70271;SHT31;57680;54.292;18.598;2024-03-06T09:01:14;6.21;78.66
70271;SHT31;57680;54.292;18.598;2024-03-06T09:03:39;6.21;77.07
70271;SHT31;57680;54.292;18.598;2024-03-06T09:06:05;6.28;77.92
70271;SHT31;57680;54.292;18.598;2024-03-06T09:08:30;6.37;76.44
70271;SHT31;57680;54.292;18.598;2024-03-06T09:10:55;6.40;76.49
70271;SHT31;57680;54.292;18.598;2024-03-06T09:13:20;6.33;76.38
70271;SHT31;57680;54.292;18.598;2024-03-06T09:15:46;6.37;76.66
70271;SHT31;57680;54.292;18.598;2024-03-06T09:18:11;6.51;76.87
70271;SHT31;57680;54.292;18.598;2024-03-06T09:20:36;6.52;76.42
70271;SHT31;57680;54.292;18.598;2024-03-06T09:23:02;6.56;75.66
70271;SHT31;57680;54.292;18.598;2024-03-06T09:25:27;6.44;75.79
70271;SHT31;57680;54.292;18.598;2024-03-06T09:27:52;6.37;76.51
70271;SHT31;57680;54.292;18.598;2024-03-06T09:30:18;6.38;77.13
70271;SHT31;57680;54.292;18.598;2024-03-06T09:32:43;6.48;77.54
70271;SHT31;57680;54.292;18.598;2024-03-06T09:35:08;6.44;75.97
70271;SHT31;57680;54.292;18.598;2024-03-06T09:37:34;6.34;77.15
70271;SHT31;57680;54.292;18.598;2024-03-06T09:39:59;6.31;77.67
70271;SHT31;57680;54.292;18.598;2024-03-06T09:42:25;6.14;76.89
70271;SHT31;57680;54.292;18.598;2024-03-06T09:44:50;6.06;76.73
70271;SHT31;57680;54.292;18.598;2024-03-06T09:47:19;6.11;77.71
70271;SHT31;57680;54.292;18.598;2024-03-06T09:49:46;6.10;77.08
70271;SHT31;57680;54.292;18.598;2024-03-06T09:52:13;6.18;77.13
70271;SHT31;57680;54.292;18.598;2024-03-06T09:54:39;6.21;76.57
70271;SHT31;57680;54.292;18.598;2024-03-06T09:57:05;6.23;76.46
70271;SHT31;57680;54.292;18.598;2024-03-06T09:59:31;6.17;75.99
70271;SHT31;57680;54.292;18.598;2024-03-06T10:01:57;6.20;77.68
70271;SHT31;57680;54.292;18.598;2024-03-06T10:04:24;6.18;76.25
70271;SHT31;57680;54.292;18.598;2024-03-06T10:06:49;6.14;76.10
70271;SHT31;57680;54.292;18.598;2024-03-06T10:09:18;6.21;76.36
70271;SHT31;57680;54.292;18.598;2024-03-06T10:11:44;6.24;76.47
70271;SHT31;57680;54.292;18.598;2024-03-06T10:14:09;6.13;75.77
70271;SHT31;57680;54.292;18.598;2024-03-06T10:16:35;6.20;76.12
70271;SHT31;57680;54.292;18.598;2024-03-06T10:19:15;6.27;76.77
70271;SHT31;57680;54.292;18.598;2024-03-06T10:21:40;6.48;76.24
70271;SHT31;57680;54.292;18.598;2024-03-06T10:24:06;6.54;74.43
70271;SHT31;57680;54.292;18.598;2024-03-06T10:26:31;6.42;74.63
70271;SHT31;57680;54.292;18.598;2024-03-06T10:28:56;6.55;73.69
70271;SHT31;57680;54.292;18.598;2024-03-06T10:31:28;6.52;74.06
70271;SHT31;57680;54.292;18.598;2024-03-06T10:33:53;6.56;73.65
70271;SHT31;57680;54.292;18.598;2024-03-06T10:36:18;6.54;73.26
70271;SHT31;57680;54.292;18.598;2024-03-06T10:38:44;6.55;73.00
70271;SHT31;57680;54.292;18.598;2024-03-06T10:41:09;6.51;73.94
70271;SHT31;57680;54.292;18.598;2024-03-06T10:43:35;6.55;73.09
70271;SHT31;57680;54.292;18.598;2024-03-06T10:46:06;6.73;74.82
70271;SHT31;57680;54.292;18.598;2024-03-06T10:48:36;6.86;74.25
70271;SHT31;57680;54.292;18.598;2024-03-06T10:51:03;6.69;73.70
70271;SHT31;57680;54.292;18.598;2024-03-06T10:53:31;6.62;73.85
70271;SHT31;57680;54.292;18.598;2024-03-06T10:55:58;6.68;73.33
70271;SHT31;57680;54.292;18.598;2024-03-06T10:58:23;6.40;73.15
70271;SHT31;57680;54.292;18.598;2024-03-06T11:00:51;6.40;74.54
70271;SHT31;57680;54.292;18.598;2024-03-06T11:03:16;6.49;76.51
70271;SHT31;57680;54.292;18.598;2024-03-06T11:05:44;6.55;73.89
70271;SHT31;57680;54.292;18.598;2024-03-06T11:08:11;6.42;73.53
70271;SHT31;57680;54.292;18.598;2024-03-06T11:10:38;6.52;74.09
70271;SHT31;57680;54.292;18.598;2024-03-06T11:13:09;6.37;72.93
70271;SHT31;57680;54.292;18.598;2024-03-06T11:15:50;6.45;74.37
70271;SHT31;57680;54.292;18.598;2024-03-06T11:23:30;6.31;72.81
70271;SHT31;57680;54.292;18.598;2024-03-06T11:25:57;6.30;72.09
70271;SHT31;57680;54.292;18.598;2024-03-06T11:28:23;6.35;72.85
70271;SHT31;57680;54.292;18.598;2024-03-06T11:33:21;6.42;72.07
70271;SHT31;57680;54.292;18.598;2024-03-06T11:36:24;6.44;71.73
70271;SHT31;57680;54.292;18.598;2024-03-06T11:39:00;6.41;71.33
70271;SHT31;57680;54.292;18.598;2024-03-06T11:41:50;6.41;71.05
70271;SHT31;57680;54.292;18.598;2024-03-06T11:44:17;6.37;71.92
70271;SHT31;57680;54.292;18.598;2024-03-06T11:48:55;6.33;71.16
70271;SHT31;57680;54.292;18.598;2024-03-06T11:51:22;6.25;71.15
70271;SHT31;57680;54.292;18.598;2024-03-06T11:53:51;6.23;71.73
70271;SHT31;57680;54.292;18.598;2024-03-06T11:56:20;6.34;71.65
70271;SHT31;57680;54.292;18.598;2024-03-06T11:58:46;6.35;71.44
70271;SHT31;57680;54.292;18.598;2024-03-06T12:01:12;6.31;71.51
70271;SHT31;57680;54.292;18.598;2024-03-06T12:03:37;6.40;71.89
70271;SHT31;57680;54.292;18.598;2024-03-06T12:06:03;6.44;70.79
70271;SHT31;57680;54.292;18.598;2024-03-06T12:08:28;6.33;71.43
70271;SHT31;57680;54.292;18.598;2024-03-06T12:10:54;6.37;71.75
70271;SHT31;57680;54.292;18.598;2024-03-06T12:13:19;6.48;73.18
70271;SHT31;57680;54.292;18.598;2024-03-06T12:15:44;6.41;72.81
70271;SHT31;57680;54.292;18.598;2024-03-06T12:18:10;6.46;73.44
70271;SHT31;57680;54.292;18.598;2024-03-06T12:20:35;6.38;71.61
70271;SHT31;57680;54.292;18.598;2024-03-06T12:23:00;6.38;72.72
70271;SHT31;57680;54.292;18.598;2024-03-06T12:25:26;6.40;72.56
70271;SHT31;57680;54.292;18.598;2024-03-06T12:27:54;6.34;72.72
70271;SHT31;57680;54.292;18.598;2024-03-06T12:30:22;6.40;72.49
70271;SHT31;57680;54.292;18.598;2024-03-06T12:33:01;6.42;72.29
70271;SHT31;57680;54.292;18.598;2024-03-06T12:35:27;6.37;71.68
70271;SHT31;57680;54.292;18.598;2024-03-06T12:37:52;6.34;72.37
70271;SHT31;57680;54.292;18.598;2024-03-06T12:40:21;6.33;72.18
70271;SHT31;57680;54.292;18.598;2024-03-06T12:42:46;6.24;72.41
70271;SHT31;57680;54.292;18.598;2024-03-06T12:45:13;6.20;72.48
70271;SHT31;57680;54.292;18.598;2024-03-06T12:47:40;6.20;72.42
70271;SHT31;57680;54.292;18.598;2024-03-06T12:50:06;6.11;72.91
70271;SHT31;57680;54.292;18.598;2024-03-06T12:52:31;6.16;73.31
70271;SHT31;57680;54.292;18.598;2024-03-06T12:54:57;6.17;73.22
70271;SHT31;57680;54.292;18.598;2024-03-06T12:57:22;6.24;72.96
70271;SHT31;57680;54.292;18.598;2024-03-06T12:59:47;6.25;73.28
70271;SHT31;57680;54.292;18.598;2024-03-06T13:02:13;6.20;73.18
70271;SHT31;57680;54.292;18.598;2024-03-06T13:04:38;6.16;73.50
70271;SHT31;57680;54.292;18.598;2024-03-06T13:07:03;6.09;73.04
70271;SHT31;57680;54.292;18.598;2024-03-06T13:09:29;6.06;72.64
70271;SHT31;57680;54.292;18.598;2024-03-06T13:11:54;6.02;73.65
70271;SHT31;57680;54.292;18.598;2024-03-06T13:14:19;6.02;72.89
70271;SHT31;57680;54.292;18.598;2024-03-06T13:16:45;6.00;73.95
70271;SHT31;57680;54.292;18.598;2024-03-06T13:19:10;6.07;73.44
70271;SHT31;57680;54.292;18.598;2024-03-06T13:21:35;5.94;73.64
70271;SHT31;57680;54.292;18.598;2024-03-06T13:24:01;5.85;72.50
70271;SHT31;57680;54.292;18.598;2024-03-06T13:26:26;5.82;72.74
70271;SHT31;57680;54.292;18.598;2024-03-06T13:28:51;5.77;73.78
70271;SHT31;57680;54.292;18.598;2024-03-06T13:31:17;5.73;74.05
70271;SHT31;57680;54.292;18.598;2024-03-06T13:33:42;5.69;73.63
70271;SHT31;57680;54.292;18.598;2024-03-06T13:36:07;5.65;73.88
70271;SHT31;57680;54.292;18.598;2024-03-06T13:38:33;5.67;74.22
70271;SHT31;57680;54.292;18.598;2024-03-06T13:40:58;5.79;74.33
70271;SHT31;57680;54.292;18.598;2024-03-06T13:43:23;5.77;73.88
70271;SHT31;57680;54.292;18.598;2024-03-06T13:45:49;5.82;74.61
70271;SHT31;57680;54.292;18.598;2024-03-06T13:48:15;5.90;74.32
70271;SHT31;57680;54.292;18.598;2024-03-06T13:50:40;5.93;74.14
70271;SHT31;57680;54.292;18.598;2024-03-06T13:53:06;5.93;72.59
70271;SHT31;57680;54.292;18.598;2024-03-06T13:55:32;5.92;72.35
70271;SHT31;57680;54.292;18.598;2024-03-06T13:57:57;5.96;73.20
70271;SHT31;57680;54.292;18.598;2024-03-06T14:00:22;5.92;71.46
70271;SHT31;57680;54.292;18.598;2024-03-06T14:02:48;5.93;71.86
70271;SHT31;57680;54.292;18.598;2024-03-06T14:05:13;5.93;72.39
70271;SHT31;57680;54.292;18.598;2024-03-06T14:07:38;6.03;72.28
70271;SHT31;57680;54.292;18.598;2024-03-06T14:10:04;6.02;71.81
70271;SHT31;57680;54.292;18.598;2024-03-06T14:12:30;5.93;71.56
70271;SHT31;57680;54.292;18.598;2024-03-06T14:14:55;5.86;72.37
70271;SHT31;57680;54.292;18.598;2024-03-06T14:17:20;5.74;71.85
70271;SHT31;57680;54.292;18.598;2024-03-06T14:19:46;5.76;72.20
70271;SHT31;57680;54.292;18.598;2024-03-06T14:22:11;5.65;72.22
70271;SHT31;57680;54.292;18.598;2024-03-06T14:24:36;5.56;73.16
70271;SHT31;57680;54.292;18.598;2024-03-06T14:27:02;5.53;73.70
70271;SHT31;57680;54.292;18.598;2024-03-06T14:29:28;5.49;73.26
70271;SHT31;57680;54.292;18.598;2024-03-06T14:31:54;5.51;73.31
70271;SHT31;57680;54.292;18.598;2024-03-06T14:34:19;5.45;74.46
70271;SHT31;57680;54.292;18.598;2024-03-06T14:36:44;5.46;74.62
70271;SHT31;57680;54.292;18.598;2024-03-06T14:39:09;5.42;74.66
70271;SHT31;57680;54.292;18.598;2024-03-06T14:41:35;5.36;75.48
70271;SHT31;57680;54.292;18.598;2024-03-06T14:44:00;5.28;75.69
70271;SHT31;57680;54.292;18.598;2024-03-06T14:46:25;5.27;76.26
70271;SHT31;57680;54.292;18.598;2024-03-06T14:48:51;5.25;76.60
70271;SHT31;57680;54.292;18.598;2024-03-06T14:51:16;5.15;76.39
70271;SHT31;57680;54.292;18.598;2024-03-06T14:53:41;5.11;75.87
70271;SHT31;57680;54.292;18.598;2024-03-06T14:56:07;5.10;76.01
70271;SHT31;57680;54.292;18.598;2024-03-06T14:58:32;5.07;76.27
70271;SHT31;57680;54.292;18.598;2024-03-06T15:00:57;5.05;76.66
70271;SHT31;57680;54.292;18.598;2024-03-06T15:03:22;5.01;76.83
70271;SHT31;57680;54.292;18.598;2024-03-06T15:05:48;5.03;76.80
70271;SHT31;57680;54.292;18.598;2024-03-06T15:08:13;4.97;77.36
70271;SHT31;57680;54.292;18.598;2024-03-06T15:10:38;4.91;77.58
70271;SHT31;57680;54.292;18.598;2024-03-06T15:13:04;4.91;78.00
70271;SHT31;57680;54.292;18.598;2024-03-06T15:15:30;4.88;78.25
70271;SHT31;57680;54.292;18.598;2024-03-06T15:17:55;4.81;78.43
70271;SHT31;57680;54.292;18.598;2024-03-06T15:20:21;4.79;78.51
70271;SHT31;57680;54.292;18.598;2024-03-06T15:22:46;4.81;78.44
70271;SHT31;57680;54.292;18.598;2024-03-06T15:25:11;4.79;78.62
70271;SHT31;57680;54.292;18.598;2024-03-06T15:27:37;4.70;78.53
70271;SHT31;57680;54.292;18.598;2024-03-06T15:30:08;4.67;78.21
70271;SHT31;57680;54.292;18.598;2024-03-06T15:32:34;4.64;77.95
70271;SHT31;57680;54.292;18.598;2024-03-06T15:34:59;4.67;77.92
70271;SHT31;57680;54.292;18.598;2024-03-06T15:37:25;4.70;77.47
70271;SHT31;57680;54.292;18.598;2024-03-06T15:39:54;4.69;77.87
70271;SHT31;57680;54.292;18.598;2024-03-06T15:42:20;4.59;78.07
70271;SHT31;57680;54.292;18.598;2024-03-06T15:44:46;4.56;78.10
70271;SHT31;57680;54.292;18.598;2024-03-06T15:47:11;4.50;78.39
70271;SHT31;57680;54.292;18.598;2024-03-06T15:49:36;4.46;77.92
70271;SHT31;57680;54.292;18.598;2024-03-06T15:52:02;4.45;78.21
70271;SHT31;57680;54.292;18.598;2024-03-06T15:54:27;4.43;78.30
70271;SHT31;57680;54.292;18.598;2024-03-06T15:56:52;4.39;78.13
70271;SHT31;57680;54.292;18.598;2024-03-06T15:59:18;4.38;78.54
70271;SHT31;57680;54.292;18.598;2024-03-06T16:01:43;4.26;79.06
70271;SHT31;57680;54.292;18.598;2024-03-06T16:04:08;4.21;79.32
70271;SHT31;57680;54.292;18.598;2024-03-06T16:06:35;4.18;79.75
70271;SHT31;57680;54.292;18.598;2024-03-06T16:09:00;4.16;79.60
70271;SHT31;57680;54.292;18.598;2024-03-06T16:11:26;4.13;79.83
70271;SHT31;57680;54.292;18.598;2024-03-06T16:13:51;4.06;80.50
70271;SHT31;57680;54.292;18.598;2024-03-06T16:16:16;4.03;80.91
70271;SHT31;57680;54.292;18.598;2024-03-06T16:18:42;3.99;81.44
70271;SHT31;57680;54.292;18.598;2024-03-06T16:21:07;3.94;81.99
70271;SHT31;57680;54.292;18.598;2024-03-06T16:23:32;3.87;82.68
70271;SHT31;57680;54.292;18.598;2024-03-06T16:25:58;3.84;82.66
70271;SHT31;57680;54.292;18.598;2024-03-06T16:28:23;3.82;82.95
70271;SHT31;57680;54.292;18.598;2024-03-06T16:30:48;3.74;83.42
70271;SHT31;57680;54.292;18.598;2024-03-06T16:33:13;3.70;83.64
70271;SHT31;57680;54.292;18.598;2024-03-06T16:35:39;3.70;83.71
70271;SHT31;57680;54.292;18.598;2024-03-06T16:38:04;3.67;84.00
70271;SHT31;57680;54.292;18.598;2024-03-06T16:40:29;3.66;84.35
70271;SHT31;57680;54.292;18.598;2024-03-06T16:42:55;3.64;84.56
70271;SHT31;57680;54.292;18.598;2024-03-06T16:45:20;3.60;84.70
70271;SHT31;57680;54.292;18.598;2024-03-06T16:47:45;3.60;84.84
70271;SHT31;57680;54.292;18.598;2024-03-06T16:50:11;3.56;85.27
70271;SHT31;57680;54.292;18.598;2024-03-06T16:52:37;3.54;85.55
70271;SHT31;57680;54.292;18.598;2024-03-06T16:55:02;3.47;86.04
70271;SHT31;57680;54.292;18.598;2024-03-06T16:57:28;3.43;86.21
70271;SHT31;57680;54.292;18.598;2024-03-06T16:59:53;3.43;86.44
70271;SHT31;57680;54.292;18.598;2024-03-06T17:02:18;3.37;86.57
70271;SHT31;57680;54.292;18.598;2024-03-06T17:04:43;3.43;86.74
70271;SHT31;57680;54.292;18.598;2024-03-06T17:07:09;3.39;87.05
70271;SHT31;57680;54.292;18.598;2024-03-06T17:09:37;3.37;87.27
70271;SHT31;57680;54.292;18.598;2024-03-06T17:12:06;3.33;87.58